createdAt,value
2018-02-16T00:01:10.730Z,16.03
2018-02-16T00:03:49.949Z,18.10
2018-02-16T00:06:23.692Z,18.73
2018-02-16T00:08:57.188Z,18.33
2018-02-16T00:11:32.089Z,18.37
2018-02-16T00:14:07.788Z,19.03
2018-02-16T00:16:41.594Z,20.00
2018-02-16T00:19:16.424Z,21.23
2018-02-16T00:21:49.776Z,20.33
2018-02-16T00:24:25.024Z,19.40
2018-02-16T00:26:59.516Z,20.30
2018-02-16T00:29:32.928Z,19.90
2018-02-16T00:32:06.552Z,19.63
2018-02-16T00:34:42.091Z,20.73
2018-02-16T00:37:15.838Z,19.47
2018-02-16T00:39:50.628Z,19.20
2018-02-16T00:42:24.334Z,20.90
2018-02-16T00:44:59.822Z,21.97
2018-02-16T00:47:33.708Z,19.77
2018-02-16T00:50:08.089Z,19.27
2018-02-16T00:52:43.371Z,19.43
2018-02-16T00:55:23.017Z,21.63
2018-02-16T00:57:57.359Z,19.73
2018-02-16T01:00:31.730Z,21.27
2018-02-16T01:03:07.359Z,18.50
2018-02-16T01:05:41.624Z,19.33
2018-02-16T01:08:16.871Z,18.47
2018-02-16T01:10:52.564Z,19.23
2018-02-16T01:13:27.081Z,25.20
2018-02-16T01:16:01.243Z,20.30
2018-02-16T01:18:35.336Z,19.73
2018-02-16T01:21:09.633Z,20.67
2018-02-16T01:23:44.135Z,18.37
2018-02-16T01:26:18.560Z,18.03
2018-02-16T01:28:52.613Z,22.43
2018-02-16T01:31:27.185Z,20.70
2018-02-16T01:34:01.844Z,21.23
2018-02-16T01:36:36.653Z,21.87
2018-02-16T01:39:10.807Z,22.20
2018-02-16T01:41:45.532Z,22.33
2018-02-16T01:44:20.093Z,21.07
2018-02-16T01:46:54.752Z,19.93
2018-02-16T01:49:28.308Z,21.80
2018-02-16T01:52:02.421Z,21.23
2018-02-16T01:54:37.072Z,21.73
2018-02-16T01:57:11.421Z,17.00
2018-02-16T01:59:45.868Z,21.47
2018-02-16T02:02:19.676Z,19.30
2018-02-16T02:04:54.336Z,20.47
2018-02-16T02:07:28.649Z,18.97
2018-02-16T02:10:03.148Z,20.13
2018-02-16T02:12:37.891Z,21.10
2018-02-16T02:15:12.103Z,18.73
2018-02-16T02:17:46.860Z,19.57
2018-02-16T02:20:20.592Z,20.20
2018-02-16T02:22:55.341Z,21.93
2018-02-16T02:25:29.420Z,18.23
2018-02-16T02:28:03.444Z,19.70
2018-02-16T02:30:37.800Z,21.30
2018-02-16T02:33:15.937Z,20.20
2018-02-16T02:35:50.285Z,19.43
2018-02-16T02:38:23.658Z,18.73
2018-02-16T02:40:57.033Z,18.77
2018-02-16T02:43:31.573Z,20.43
2018-02-16T02:46:05.532Z,17.77
2018-02-16T02:48:40.293Z,18.80
2018-02-16T02:51:13.972Z,19.83
2018-02-16T02:53:47.839Z,19.30
2018-02-16T02:56:22.768Z,20.90
2018-02-16T02:58:57.409Z,18.90
2018-02-16T03:01:31.453Z,19.57
2018-02-16T03:04:06.444Z,18.03
2018-02-16T03:06:41.209Z,18.83
2018-02-16T03:09:14.820Z,21.27
2018-02-16T03:11:48.895Z,19.77
2018-02-16T03:14:27.082Z,20.80
2018-02-16T03:17:00.985Z,20.27
2018-02-16T03:19:35.893Z,18.03
2018-02-16T03:22:10.545Z,18.27
2018-02-16T03:24:44.349Z,18.23
2018-02-16T03:27:19.245Z,20.47
2018-02-16T03:29:52.936Z,18.97
2018-02-16T03:32:28.775Z,22.40
2018-02-16T03:35:02.805Z,20.17
2018-02-16T03:37:36.576Z,23.70
2018-02-16T03:40:11.862Z,19.07
2018-02-16T03:42:46.363Z,23.60
2018-02-16T03:45:20.907Z,22.73
2018-02-16T03:47:55.348Z,20.27
2018-02-16T03:50:29.593Z,23.93
2018-02-16T03:53:04.465Z,19.43
2018-02-16T03:55:38.468Z,23.93
2018-02-16T03:58:12.640Z,22.50
2018-02-16T04:00:47.452Z,24.80
2018-02-16T04:03:22.152Z,21.73
2018-02-16T04:05:56.183Z,24.13
2018-02-16T04:08:30.708Z,21.63
2018-02-16T04:11:05.332Z,21.03
2018-02-16T04:13:39.862Z,24.90
2018-02-16T04:16:14.040Z,23.57
2018-02-16T04:18:48.219Z,21.53
2018-02-16T04:21:22.833Z,26.50
2018-02-16T04:24:01.457Z,26.13
2018-02-16T04:26:36.399Z,24.20
2018-02-16T04:29:10.240Z,24.07
2018-02-16T04:31:43.607Z,24.00
2018-02-16T04:34:17.961Z,25.10
2018-02-16T04:36:52.323Z,22.97
2018-02-16T04:39:26.701Z,27.07
2018-02-16T04:42:05.073Z,27.67
2018-02-16T04:44:40.025Z,26.47
2018-02-16T04:47:14.248Z,24.87
2018-02-16T04:49:48.284Z,26.97
2018-02-16T04:52:22.892Z,25.07
2018-02-16T04:54:56.748Z,26.47
2018-02-16T04:57:30.679Z,29.00
2018-02-16T05:00:04.289Z,25.63
2018-02-16T05:02:42.024Z,30.40
2018-02-16T05:05:16.648Z,27.73
2018-02-16T05:07:51.244Z,31.40
2018-02-16T05:10:25.764Z,25.57
2018-02-16T05:13:01.233Z,27.30
2018-02-16T05:15:35.504Z,30.80
2018-02-16T05:18:10.024Z,26.27
2018-02-16T05:20:45.644Z,30.87
2018-02-16T05:23:21.756Z,30.20
2018-02-16T05:25:56.097Z,24.60
2018-02-16T05:28:30.369Z,23.93
2018-02-16T05:31:04.323Z,29.53
2018-02-16T05:33:37.915Z,24.97
2018-02-16T05:36:11.849Z,26.60
2018-02-16T05:38:46.307Z,28.17
2018-02-16T05:41:20.587Z,24.27
2018-02-16T05:43:54.579Z,26.33
2018-02-16T05:46:30.411Z,27.00
2018-02-16T05:49:04.979Z,24.13
2018-02-16T05:51:39.044Z,24.50
2018-02-16T05:54:13.665Z,23.80
2018-02-16T05:56:48.432Z,25.43
2018-02-16T05:59:23.763Z,28.87
2018-02-16T06:01:58.878Z,27.50
2018-02-16T06:04:32.940Z,29.03
2018-02-16T06:07:06.753Z,24.83
2018-02-16T06:09:41.916Z,75.07
2018-02-16T06:12:17.542Z,32.40
2018-02-16T06:14:52.056Z,27.40
2018-02-16T06:17:25.641Z,28.00
2018-02-16T06:19:59.758Z,29.23
2018-02-16T06:22:34.077Z,23.57
2018-02-16T06:25:07.885Z,22.87
2018-02-16T06:27:42.053Z,25.87
2018-02-16T06:30:16.872Z,26.67
2018-02-16T06:32:54.213Z,29.23
2018-02-16T06:35:28.196Z,25.27
2018-02-16T06:38:02.331Z,24.90
2018-02-16T06:40:36.165Z,25.37
2018-02-16T06:43:11.809Z,23.27
2018-02-16T06:45:46.841Z,24.63
2018-02-16T06:48:20.057Z,26.17
2018-02-16T06:50:53.892Z,24.27
2018-02-16T06:53:29.559Z,24.40
2018-02-16T06:56:03.653Z,24.63
2018-02-16T06:58:38.355Z,22.50
2018-02-16T07:01:12.620Z,22.40
2018-02-16T07:03:47.544Z,28.03
2018-02-16T07:06:22.196Z,21.33
2018-02-16T07:08:56.239Z,25.27
2018-02-16T07:11:30.707Z,24.30
2018-02-16T07:14:05.498Z,26.17
2018-02-16T07:16:39.605Z,27.70
2018-02-16T07:19:14.074Z,31.40
2018-02-16T07:21:48.649Z,27.70
2018-02-16T07:24:23.037Z,23.87
2018-02-16T07:26:57.425Z,27.77
2018-02-16T07:29:32.032Z,27.73
2018-02-16T07:32:06.633Z,23.43
2018-02-16T07:34:40.991Z,25.40
2018-02-16T07:37:15.320Z,27.53
2018-02-16T07:39:50.592Z,24.57
2018-02-16T07:42:24.381Z,24.47
2018-02-16T07:44:59.122Z,22.43
2018-02-16T07:47:33.344Z,28.23
2018-02-16T07:50:08.529Z,29.23
2018-02-16T07:52:44.153Z,25.67
2018-02-16T07:55:18.061Z,30.63
2018-02-16T07:57:51.653Z,25.77
2018-02-16T08:00:25.601Z,27.60
2018-02-16T08:03:00.828Z,27.77
2018-02-16T08:05:35.196Z,29.40
2018-02-16T08:08:10.876Z,27.20
2018-02-16T08:10:45.441Z,26.97
2018-02-16T08:13:21.096Z,27.03
2018-02-16T08:15:55.420Z,30.87
2018-02-16T08:18:29.253Z,23.53
2018-02-16T08:21:03.526Z,25.47
2018-02-16T08:23:37.864Z,28.23
2018-02-16T08:26:11.664Z,27.87
2018-02-16T08:28:45.564Z,28.57
2018-02-16T08:31:19.978Z,27.67
2018-02-16T08:33:53.785Z,30.30
2018-02-16T08:36:28.205Z,29.80
2018-02-16T08:39:02.612Z,25.77
2018-02-16T08:41:41.478Z,30.40
2018-02-16T08:44:16.400Z,26.20
2018-02-16T08:46:50.265Z,25.40
2018-02-16T08:49:25.132Z,25.73
2018-02-16T08:51:59.253Z,28.30
2018-02-16T08:54:33.704Z,32.50
2018-02-16T08:57:08.708Z,30.80
2018-02-16T08:59:43.407Z,28.13
2018-02-16T09:02:17.544Z,24.83
2018-02-16T09:04:52.596Z,25.23
2018-02-16T09:07:26.496Z,23.63
2018-02-16T09:10:01.056Z,22.70
2018-02-16T09:12:34.668Z,22.77
2018-02-16T09:15:09.136Z,23.53
2018-02-16T09:17:43.677Z,24.00
2018-02-16T09:20:18.915Z,19.80
2018-02-16T09:22:55.472Z,24.73
2018-02-16T09:25:29.213Z,18.73
2018-02-16T09:28:02.872Z,18.53
2018-02-16T09:30:39.021Z,17.57
2018-02-16T09:33:14.023Z,20.43
2018-02-16T09:35:54.247Z,23.67
2018-02-16T09:38:28.392Z,19.80
2018-02-16T09:41:02.828Z,25.00
2018-02-16T09:43:39.011Z,19.90
2018-02-16T09:46:13.277Z,17.10
2018-02-16T09:48:48.179Z,18.80
2018-02-16T09:51:23.232Z,21.07
2018-02-16T09:53:57.821Z,20.57
2018-02-16T09:56:32.091Z,24.03
2018-02-16T09:59:06.215Z,19.33
2018-02-16T10:01:41.032Z,18.67
2018-02-16T10:04:15.643Z,23.73
2018-02-16T10:06:49.848Z,21.60
2018-02-16T10:09:24.725Z,26.57
2018-02-16T10:11:59.503Z,19.87
2018-02-16T10:14:34.239Z,20.87
2018-02-16T10:17:08.495Z,20.27
2018-02-16T10:19:42.200Z,15.60
2018-02-16T10:22:16.783Z,16.67
2018-02-16T10:24:51.124Z,13.17
2018-02-16T10:27:24.921Z,17.77
2018-02-16T10:29:59.180Z,11.83
2018-02-16T10:32:39.712Z,15.23
2018-02-16T10:35:14.456Z,11.67
2018-02-16T10:37:48.723Z,9.27
2018-02-16T10:40:22.811Z,12.43
2018-02-16T10:42:59.670Z,12.03
2018-02-16T10:45:34.276Z,14.80
2018-02-16T10:48:07.909Z,18.90
2018-02-16T10:50:42.377Z,24.50
2018-02-16T10:53:20.860Z,14.30
2018-02-16T10:55:54.680Z,8.93
2018-02-16T10:58:29.226Z,7.97
2018-02-16T11:01:11.140Z,10.50
2018-02-16T11:03:44.633Z,8.30
2018-02-16T11:06:39.701Z,8.33
2018-02-16T11:09:18.910Z,10.57
2018-02-16T11:11:53.311Z,6.50
2018-02-16T11:14:27.732Z,9.13
2018-02-16T11:17:02.293Z,18.63
2018-02-16T11:19:36.713Z,14.20
2018-02-16T11:22:12.223Z,12.30
2018-02-16T11:24:47.161Z,7.37
2018-02-16T11:27:21.307Z,6.70
2018-02-16T11:29:56.277Z,8.90
2018-02-16T11:32:36.004Z,9.90
2018-02-16T11:35:10.172Z,8.90
2018-02-16T11:37:44.740Z,8.30
2018-02-16T11:40:19.604Z,15.70
2018-02-16T11:42:53.685Z,7.73
2018-02-16T11:45:28.132Z,34.07
2018-02-16T11:48:01.658Z,26.73
2018-02-16T11:50:35.807Z,5.57
2018-02-16T11:53:16.761Z,8.27
2018-02-16T11:55:51.522Z,28.20
2018-02-16T11:58:25.499Z,19.00
2018-02-16T12:00:59.737Z,7.73
2018-02-16T12:03:33.713Z,13.37
2018-02-16T12:06:07.633Z,8.03
2018-02-16T12:08:42.056Z,6.83
2018-02-16T12:11:21.972Z,8.60
2018-02-16T12:13:56.366Z,22.27
2018-02-16T12:16:30.140Z,18.67
2018-02-16T12:19:04.639Z,12.40
2018-02-16T12:21:42.508Z,14.53
2018-02-16T12:24:16.418Z,13.47
2018-02-16T12:26:50.295Z,11.63
2018-02-16T12:29:24.820Z,9.87
2018-02-16T12:31:59.356Z,8.97
2018-02-16T12:34:33.173Z,9.00
2018-02-16T12:37:06.970Z,41.27
2018-02-16T12:39:41.567Z,12.30
2018-02-16T12:42:19.555Z,8.20
2018-02-16T12:44:53.184Z,7.83
2018-02-16T12:47:27.395Z,8.43
2018-02-16T12:50:01.874Z,15.03
2018-02-16T12:52:36.393Z,11.23
2018-02-16T12:55:10.873Z,10.50
2018-02-16T12:57:45.204Z,7.57
2018-02-16T13:00:18.869Z,8.00
2018-02-16T13:02:53.477Z,7.80
2018-02-16T13:05:28.671Z,12.57
2018-02-16T13:08:03.880Z,10.53
2018-02-16T13:10:37.304Z,16.77
2018-02-16T13:13:12.715Z,12.23
2018-02-16T13:15:46.576Z,8.83
2018-02-16T13:18:21.171Z,12.93
2018-02-16T13:20:56.799Z,13.60
2018-02-16T13:23:31.109Z,8.93
2018-02-16T13:26:05.340Z,8.43
2018-02-16T13:28:39.990Z,9.40
2018-02-16T13:31:15.632Z,14.33
2018-02-16T13:33:49.467Z,12.27
2018-02-16T13:36:22.847Z,9.53
2018-02-16T13:38:56.764Z,10.70
2018-02-16T13:41:36.228Z,8.90
2018-02-16T13:44:10.593Z,8.33
2018-02-16T13:46:44.600Z,9.17
2018-02-16T13:49:18.260Z,24.17
2018-02-16T13:51:53.036Z,38.90
2018-02-16T13:54:28.465Z,11.20
2018-02-16T13:57:02.485Z,21.70
2018-02-16T13:59:36.688Z,13.90
2018-02-16T14:02:16.001Z,10.80
2018-02-16T14:04:51.911Z,12.57
2018-02-16T14:07:26.738Z,10.13
2018-02-16T14:10:01.062Z,14.10
2018-02-16T14:12:36.304Z,14.27
2018-02-16T14:15:10.597Z,12.57
2018-02-16T14:17:44.632Z,10.30
2018-02-16T14:20:19.193Z,13.67
2018-02-16T14:22:53.766Z,10.33
2018-02-16T14:25:28.109Z,13.23
2018-02-16T14:28:02.756Z,20.60
2018-02-16T14:30:40.464Z,17.83
2018-02-16T14:33:14.649Z,19.30
2018-02-16T14:35:49.059Z,18.17
2018-02-16T14:38:22.132Z,23.70
2018-02-16T14:40:56.908Z,14.50
2018-02-16T14:43:32.644Z,48.87
2018-02-16T14:46:07.412Z,38.00
2018-02-16T14:48:41.919Z,37.27
2018-02-16T14:51:16.465Z,34.80
2018-02-16T14:53:51.097Z,37.33
2018-02-16T14:56:25.195Z,57.53
2018-02-16T14:58:59.062Z,57.13
2018-02-16T15:01:38.497Z,64.93
2018-02-16T15:04:12.963Z,49.07
2018-02-16T15:06:46.906Z,51.27
2018-02-16T15:09:21.153Z,57.27
2018-02-16T15:11:55.236Z,139.50
2018-02-16T15:14:29.732Z,98.90
2018-02-16T15:17:03.992Z,56.40
2018-02-16T15:19:38.341Z,63.03
2018-02-16T15:22:13.987Z,57.07
2018-02-16T15:24:48.300Z,65.40
2018-02-16T15:27:23.793Z,52.47
2018-02-16T15:29:58.201Z,52.43
2018-02-16T15:32:32.757Z,67.83
2018-02-16T15:35:07.361Z,56.80
2018-02-16T15:37:41.321Z,56.90
2018-02-16T15:40:16.133Z,61.77
2018-02-16T15:42:50.781Z,60.17
2018-02-16T15:45:25.257Z,45.00
2018-02-16T15:47:59.545Z,55.93
2018-02-16T15:50:34.857Z,66.53
2018-02-16T15:53:08.965Z,45.97
2018-02-16T15:55:43.622Z,50.50
2018-02-16T15:58:17.720Z,58.07
2018-02-16T16:00:54.937Z,48.20
2018-02-16T16:03:28.740Z,44.20
2018-02-16T16:06:03.145Z,45.77
2018-02-16T16:08:37.605Z,43.10
2018-02-16T16:11:15.817Z,48.73
2018-02-16T16:13:50.385Z,41.97
2018-02-16T16:16:25.084Z,47.57
2018-02-16T16:18:58.880Z,43.83
2018-02-16T16:21:37.122Z,42.53
2018-02-16T16:24:10.950Z,45.83
2018-02-16T16:26:45.541Z,42.17
2018-02-16T16:29:20.368Z,44.90
2018-02-16T16:31:54.681Z,40.93
2018-02-16T16:34:28.912Z,56.20
2018-02-16T16:37:02.676Z,57.03
2018-02-16T16:39:36.448Z,56.13
2018-02-16T16:42:10.939Z,59.07
2018-02-16T16:44:45.110Z,59.10
2018-02-16T16:47:19.888Z,93.97
2018-02-16T16:49:54.259Z,94.07
2018-02-16T16:52:29.048Z,93.90
2018-02-16T16:55:02.409Z,56.53
2018-02-16T16:57:36.519Z,106.47
2018-02-16T17:00:11.076Z,92.77
2018-02-16T17:02:44.440Z,90.37
2018-02-16T17:05:18.852Z,79.47
2018-02-16T17:07:52.153Z,79.83
2018-02-16T17:10:29.776Z,70.43
2018-02-16T17:13:03.721Z,153.27
2018-02-16T17:15:38.189Z,173.40
2018-02-16T17:18:12.163Z,177.90
2018-02-16T17:20:49.992Z,102.23
2018-02-16T17:23:24.237Z,75.40
2018-02-16T17:25:58.601Z,94.23
2018-02-16T17:28:32.764Z,81.23
2018-02-16T17:31:10.189Z,73.93
2018-02-16T17:33:44.227Z,78.67
2018-02-16T17:36:18.132Z,107.97
2018-02-16T17:38:52.974Z,99.07
2018-02-16T17:41:27.801Z,90.13
2018-02-16T17:44:01.712Z,94.10
2018-02-16T17:46:35.973Z,114.53
2018-02-16T17:49:12.029Z,110.93
2018-02-16T17:51:46.749Z,107.23
2018-02-16T17:54:22.289Z,102.33
2018-02-16T17:56:56.861Z,71.93
2018-02-16T17:59:31.293Z,107.03
2018-02-16T18:02:06.724Z,72.13
2018-02-16T18:04:40.713Z,63.77
2018-02-16T18:07:15.145Z,81.60
2018-02-16T18:09:49.045Z,74.43
2018-02-16T18:12:23.647Z,95.40
2018-02-16T18:14:57.813Z,107.93
2018-02-16T18:17:32.192Z,85.27
2018-02-16T18:20:07.257Z,77.07
2018-02-16T18:22:41.886Z,76.50
2018-02-16T18:25:16.528Z,66.43
2018-02-16T18:27:51.429Z,61.70
2018-02-16T18:30:30.635Z,59.00
2018-02-16T18:33:05.607Z,64.77
2018-02-16T18:35:40.401Z,70.70
2018-02-16T18:38:16.492Z,87.83
2018-02-16T18:40:54.624Z,80.73
2018-02-16T18:43:29.465Z,101.83
2018-02-16T18:46:04.718Z,91.03
2018-02-16T18:48:39.669Z,107.77
2018-02-16T18:51:13.259Z,124.07
2018-02-16T18:53:46.932Z,129.27
2018-02-16T18:56:21.152Z,117.73
2018-02-16T18:58:55.801Z,134.10
2018-02-16T19:01:30.794Z,108.10
2018-02-16T19:04:05.404Z,120.67
2018-02-16T19:06:40.681Z,107.50
2018-02-16T19:09:17.377Z,90.10
2018-02-16T19:11:51.537Z,105.87
2018-02-16T19:14:26.653Z,101.57
2018-02-16T19:17:01.079Z,113.93
2018-02-16T19:19:35.393Z,97.67
2018-02-16T19:22:11.819Z,100.70
2018-02-16T19:24:46.686Z,124.60
2018-02-16T19:27:20.588Z,115.83
2018-02-16T19:29:55.727Z,104.97
2018-02-16T19:32:29.953Z,108.13
2018-02-16T19:35:04.354Z,116.93
2018-02-16T19:37:39.101Z,99.20
2018-02-16T19:40:13.732Z,99.63
2018-02-16T19:42:49.455Z,103.20
2018-02-16T19:45:24.395Z,97.57
2018-02-16T19:47:58.686Z,107.77
2018-02-16T19:50:34.087Z,104.40
2018-02-16T19:53:07.418Z,103.77
2018-02-16T19:55:41.589Z,109.63
2018-02-16T19:58:16.866Z,112.27
2018-02-16T20:00:51.758Z,97.60
2018-02-16T20:03:26.368Z,92.63
2018-02-16T20:06:00.889Z,86.03
2018-02-16T20:08:35.393Z,114.37
2018-02-16T20:11:10.352Z,112.10
2018-02-16T20:13:44.868Z,97.30
2018-02-16T20:16:21.226Z,113.83
2018-02-16T20:18:55.597Z,101.60
2018-02-16T20:21:31.056Z,97.07
2018-02-16T20:24:06.669Z,136.77
2018-02-16T20:26:40.881Z,120.57
2018-02-16T20:29:15.406Z,135.60
2018-02-16T20:31:53.101Z,133.90
2018-02-16T20:34:28.934Z,111.63
2018-02-16T20:37:03.436Z,140.70
2018-02-16T20:39:39.331Z,128.60
2018-02-16T20:42:13.141Z,123.07
2018-02-16T20:44:47.557Z,88.67
2018-02-16T20:47:21.645Z,79.13
2018-02-16T20:49:59.580Z,79.37
2018-02-16T20:52:35.264Z,87.87
2018-02-16T20:55:09.526Z,85.77
2018-02-16T20:57:44.918Z,73.77
2018-02-16T21:00:20.569Z,103.53
2018-02-16T21:02:54.340Z,86.90
2018-02-16T21:05:29.201Z,99.70
2018-02-16T21:08:03.351Z,101.27
2018-02-16T21:10:40.797Z,98.97
2018-02-16T21:13:15.145Z,79.27
2018-02-16T21:15:49.397Z,85.40
2018-02-16T21:18:24.763Z,71.70
2018-02-16T21:21:06.132Z,75.43
2018-02-16T21:23:41.272Z,92.17
2018-02-16T21:26:15.617Z,91.57
2018-02-16T21:28:49.292Z,137.30
2018-02-16T21:31:25.624Z,89.57
2018-02-16T21:33:59.302Z,121.57
2018-02-16T21:36:33.445Z,126.60
2018-02-16T21:39:09.330Z,157.33
2018-02-16T21:41:47.970Z,154.03
2018-02-16T21:44:22.145Z,134.00
2018-02-16T21:46:56.649Z,140.30
2018-02-16T21:49:31.109Z,140.30
2018-02-16T21:52:05.505Z,143.40
2018-02-16T21:54:39.857Z,109.17
2018-02-16T21:57:14.229Z,140.93
2018-02-16T21:59:52.913Z,96.07
2018-02-16T22:02:26.525Z,131.57
2018-02-16T22:05:01.172Z,146.90
2018-02-16T22:07:34.936Z,116.17
2018-02-16T22:10:09.553Z,146.63
2018-02-16T22:12:45.362Z,135.87
2018-02-16T22:15:19.980Z,127.67
2018-02-16T22:17:54.024Z,124.13
2018-02-16T22:20:29.412Z,131.57
2018-02-16T22:23:03.788Z,123.17
2018-02-16T22:25:37.159Z,140.10
2018-02-16T22:28:12.056Z,127.70
2018-02-16T22:30:48.588Z,153.40
2018-02-16T22:33:23.056Z,97.90
2018-02-16T22:35:57.677Z,96.70
2018-02-16T22:38:31.939Z,95.47
2018-02-16T22:41:04.889Z,76.83
2018-02-16T22:43:38.743Z,103.90
2018-02-16T22:46:12.299Z,96.67
2018-02-16T22:48:46.483Z,75.30
2018-02-16T22:51:21.057Z,68.07
2018-02-16T22:53:56.488Z,65.83
2018-02-16T22:56:30.649Z,84.40
2018-02-16T22:59:05.323Z,67.63
2018-02-16T23:01:39.617Z,73.63
2018-02-16T23:04:13.676Z,75.50
2018-02-16T23:06:48.079Z,74.57
2018-02-16T23:09:22.968Z,74.67
2018-02-16T23:11:57.244Z,66.83
2018-02-16T23:14:31.700Z,65.23
2018-02-16T23:17:06.187Z,69.13
2018-02-16T23:19:40.533Z,48.97
2018-02-16T23:22:14.896Z,65.90
2018-02-16T23:24:50.013Z,50.20
2018-02-16T23:27:23.324Z,61.07
2018-02-16T23:29:57.680Z,57.53
2018-02-16T23:32:32.468Z,45.23
2018-02-16T23:35:06.725Z,43.97
2018-02-16T23:37:41.044Z,45.40
2018-02-16T23:40:15.919Z,41.27
2018-02-16T23:42:50.242Z,35.73
2018-02-16T23:45:24.620Z,43.47
2018-02-16T23:47:58.460Z,39.27
2018-02-16T23:50:34.113Z,42.67
2018-02-16T23:53:08.022Z,53.73
2018-02-16T23:55:42.108Z,53.73
2018-02-16T23:58:16.977Z,47.47
